Terminal Aerodrome Forecast
Issued by NWS Sioux Falls, SD

Home | Current Version | Previous Version | Graphics & Text | Print | Product List | Glossary On
Versions: 1 2 3 4 5 6 7 8 9 10 11 12 13 14 15 16 17 18
000
FTUS43 KFSD 241916 AAA
TAFHON
TAF AMD
KHON 241916Z 2419/2518 18011KT P6SM SCT150
     FM242000 16012KT P6SM FEW040
     FM242300 11010KT P6SM SCT035 BKN100
      TEMPO 2423/2501 6SM TSRA BKN035CB
     FM250300 09009KT P6SM BKN025
     FM250800 06011KT P6SM OVC018
     FM251600 07013KT P6SM OVC025=

USA.gov is the U.S. government's official web portal to all federal, state and local government web resources and services.